Time;durP1;ratioP1;P1;durP2;ratioP2;P2;SDS_P1;SDS_P2;PMS_P1;PMS_P2;Temp;Humidity;BMP_temperature;BMP_pressure;BME280_temperature;BME280_humidity;BME280_pressure;Samples;Min_cycle;Max_cycle;Signal;HPM_P1;HPM_P2
2022/07/03 00:00:00;;;;;;;1.48;0.55;;;;;;;17.23;72.62;101595.00;2103515;28;26728;-71
2022/07/03 00:01:12;;;;;;;1.45;0.50;;;;;;;17.22;72.90;101602.25;2096760;28;20049;-71
2022/07/03 00:02:14;;;;;;;2.33;0.52;;;;;;;17.21;72.62;101595.09;2096601;28;25304;-68
2022/07/03 00:03:15;;;;;;;1.33;0.40;;;;;;;17.18;72.84;101596.06;2097278;28;20033;-69
2022/07/03 00:04:19;;;;;;;1.25;0.60;;;;;;;17.21;73.57;101592.38;2096125;28;37186;-70
2022/07/03 00:05:24;;;;;;;3.15;0.55;;;;;;;17.20;72.78;101601.44;2096463;28;27436;-70
2022/07/03 00:06:27;;;;;;;1.67;0.60;;;;;;;17.21;72.79;101592.38;2095983;28;37053;-70
2022/07/03 00:07:31;;;;;;;2.60;0.70;;;;;;;17.18;72.55;101598.78;2096960;28;20225;-70
2022/07/03 00:08:33;;;;;;;2.08;0.60;;;;;;;17.20;72.70;101587.03;2096834;28;20390;-70
2022/07/03 00:09:37;;;;;;;1.65;0.50;;;;;;;17.18;73.04;101587.94;2096275;28;26025;-70
2022/07/03 00:10:39;;;;;;;2.90;0.75;;;;;;;17.19;73.46;101588.81;2096410;28;28259;-70
2022/07/03 00:11:42;;;;;;;1.67;0.45;;;;;;;17.17;73.48;101590.72;2096751;28;20077;-70
2022/07/03 00:12:44;;;;;;;4.03;0.82;;;;;;;17.16;73.12;101587.13;2095511;28;29445;-71
2022/07/03 00:13:46;;;;;;;2.42;0.70;;;;;;;17.16;73.32;101583.56;2088379;28;22145;-70
2022/07/03 00:14:50;;;;;;;1.73;0.70;;;;;;;17.13;73.47;101575.56;2096053;28;22497;-70
2022/07/03 00:15:51;;;;;;;2.20;1.10;;;;;;;17.11;73.26;101586.44;2096873;28;20920;-70
2022/07/03 00:16:54;;;;;;;2.38;1.00;;;;;;;17.10;73.31;101589.19;2104434;28;20443;-70
2022/07/03 00:17:56;;;;;;;2.63;0.70;;;;;;;17.07;73.61;101579.41;2104022;28;28975;-70
2022/07/03 00:18:58;;;;;;;3.88;0.63;;;;;;;17.04;73.35;101574.09;2095377;28;34599;-70
2022/07/03 00:20:00;;;;;;;2.70;0.80;;;;;;;17.03;73.91;101575.06;2096737;28;20801;-70
2022/07/03 00:21:09;;;;;;;1.38;0.80;;;;;;;17.03;73.73;101582.28;2096938;28;20045;-70
2022/07/03 00:22:12;;;;;;;1.50;0.65;;;;;;;16.98;74.44;101580.63;2087860;28;27707;-70
2022/07/03 00:23:18;;;;;;;1.80;0.60;;;;;;;16.95;73.76;101574.47;2088658;28;21196;-70
2022/07/03 00:24:45;;;;;;;0.98;0.60;;;;;;;16.88;73.79;101573.81;2096143;28;27838;-69
2022/07/03 00:25:49;;;;;;;2.65;0.80;;;;;;;16.83;74.39;101575.81;2095671;28;37453;-71
2022/07/03 00:26:53;;;;;;;3.05;0.75;;;;;;;16.79;73.99;101566.91;2095846;28;26081;-70
2022/07/03 00:27:55;;;;;;;3.15;0.65;;;;;;;16.76;74.80;101568.84;2095596;28;20041;-70
2022/07/03 00:29:00;;;;;;;2.20;0.60;;;;;;;16.74;74.51;101570.72;2096065;28;20110;-70
2022/07/03 00:30:03;;;;;;;3.15;0.88;;;;;;;16.71;75.25;101566.34;2095840;28;39455;-71
2022/07/03 00:31:07;;;;;;;1.52;0.50;;;;;;;16.67;75.40;101564.69;2096579;28;20422;-70
2022/07/03 00:32:13;;;;;;;4.00;0.60;;;;;;;16.65;76.04;101560.28;2095958;28;20979;-70
2022/07/03 00:33:15;;;;;;;2.20;0.60;;;;;;;16.59;75.65;101564.09;2095815;28;23461;-70
2022/07/03 00:34:18;;;;;;;3.03;0.50;;;;;;;16.55;75.43;101562.47;2096274;28;20102;-71
2022/07/03 00:35:20;;;;;;;3.22;0.70;;;;;;;16.53;76.45;101556.25;2095993;28;22283;-71
2022/07/03 00:36:46;;;;;;;2.55;0.32;;;;;;;16.48;76.25;101558.22;2096545;28;24543;-70
2022/07/03 00:37:48;;;;;;;2.35;0.68;;;;;;;16.41;76.08;101553.03;2096555;28;23416;-70
2022/07/03 00:38:50;;;;;;;3.08;0.60;;;;;;;16.37;76.53;101551.41;2096301;28;29141;-71
2022/07/03 00:39:52;;;;;;;3.13;0.40;;;;;;;16.34;76.38;101556.91;2096501;28;21346;-71
2022/07/03 00:40:54;;;;;;;1.38;0.52;;;;;;;16.30;76.74;101549.88;2095525;28;29388;-71
2022/07/03 00:42:04;;;;;;;1.40;0.55;;;;;;;16.24;77.00;101547.41;2095737;28;20037;-71
2022/07/03 00:43:13;;;;;;;1.58;0.60;;;;;;;16.20;77.31;101548.44;2096611;28;21366;-70
2022/07/03 00:44:15;;;;;;;1.80;0.90;;;;;;;16.18;77.61;101547.59;2095404;28;32404;-71
2022/07/03 00:45:20;;;;;;;4.03;0.90;;;;;;;16.13;77.97;101552.28;2089008;28;22640;-70
2022/07/03 00:46:24;;;;;;;3.10;0.90;;;;;;;16.14;78.02;101548.66;2087373;28;37613;-70
2022/07/03 00:47:26;;;;;;;3.25;0.80;;;;;;;16.10;78.00;101552.44;2095815;28;23084;-71
2022/07/03 00:48:31;;;;;;;2.45;0.70;;;;;;;16.08;78.37;101551.56;2095784;28;21141;-70
2022/07/03 00:49:35;;;;;;;2.92;1.33;;;;;;;16.03;78.19;101554.47;2088273;28;24719;-71
2022/07/03 00:50:37;;;;;;;2.33;1.02;;;;;;;16.00;78.88;101552.72;2088210;28;27416;-71
2022/07/03 00:51:40;;;;;;;2.25;1.10;;;;;;;15.99;78.25;101555.50;2095898;28;20040;-70
2022/07/03 00:52:47;;;;;;;5.05;0.95;;;;;;;15.98;78.83;101551.03;2103886;28;27889;-70
2022/07/03 00:53:52;;;;;;;2.08;0.60;;;;;;;15.97;78.96;101558.25;2095959;28;20053;-70
2022/07/03 00:54:57;;;;;;;2.15;0.90;;;;;;;15.95;79.21;101554.75;2096245;28;30008;-70
2022/07/03 00:56:03;;;;;;;2.60;0.90;;;;;;;15.95;79.13;101559.25;2096005;28;26473;-71
2022/07/03 00:57:10;;;;;;;2.78;0.68;;;;;;;15.93;79.04;101555.72;2096182;28;26588;-70
2022/07/03 00:58:16;;;;;;;2.00;0.80;;;;;;;15.94;80.03;101561.06;2096614;28;20464;-70
2022/07/03 00:59:19;;;;;;;3.40;0.98;;;;;;;15.94;80.13;101552.97;2096232;28;20037;-70
2022/07/03 01:00:21;;;;;;;1.90;0.80;;;;;;;15.91;79.93;101558.47;2095320;28;34197;-70
2022/07/03 01:01:30;;;;;;;1.42;0.95;;;;;;;15.91;79.50;101554.88;2096465;28;26601;-70
2022/07/03 01:02:58;;;;;;;1.77;0.70;;;;;;;15.89;80.33;101556.78;2088053;28;24188;-70
2022/07/03 01:04:16;;;;;;;3.13;0.85;;;;;;;15.88;80.07;101553.19;2088417;28;20042;-70
2022/07/03 01:05:37;;;;;;;3.42;1.00;;;;;;;15.88;80.92;101553.19;2087592;28;32074;-70
2022/07/03 01:06:53;;;;;;;2.47;1.00;;;;;;;15.87;80.15;101553.25;2087758;28;20250;-70
2022/07/03 01:08:16;;;;;;;4.10;1.27;;;;;;;15.88;80.94;101553.19;2088003;28;33553;-70
2022/07/03 01:09:32;;;;;;;2.42;0.90;;;;;;;15.87;80.60;101554.13;2088416;28;20062;-70
2022/07/03 01:11:02;;;;;;;3.25;1.17;;;;;;;15.86;80.30;101552.34;2078869;28;29331;-70
2022/07/03 01:12:20;;;;;;;2.35;0.90;;;;;;;15.85;80.04;101553.28;2085388;28;20927;-70
2022/07/03 01:13:44;;;;;;;2.90;1.17;;;;;;;15.84;79.97;101551.50;2088158;28;22238;-70
2022/07/03 01:15:18;;;;;;;2.17;0.90;;;;;;;15.81;80.01;101544.41;2087766;28;20087;-70
2022/07/03 01:16:40;;;;;;;3.63;0.90;;;;;;;15.80;80.01;101544.47;2085459;28;30351;-70
2022/07/03 01:18:02;;;;;;;2.38;0.90;;;;;;;15.79;80.17;101542.69;2087457;28;36934;-70
2022/07/03 01:19:41;;;;;;;1.65;0.90;;;;;;;15.76;80.42;101548.22;2086539;28;42447;-70
2022/07/03 01:20:51;;;;;;;2.85;1.00;;;;;;;15.73;80.02;101535.66;2087872;28;22952;-70
2022/07/03 01:21:53;;;;;;;;;;;;;;;15.70;80.45;101537.59;2087807;28;30311;-70
2022/07/03 01:22:59;;;;;;;2.65;0.98;;;;;;;15.68;80.00;101540.31;2086853;28;29892;-70
2022/07/03 01:24:39;;;;;;;2.13;0.82;;;;;;;15.65;80.32;101544.03;2087822;28;29445;-70
2022/07/03 01:25:48;;;;;;;2.92;1.08;;;;;;;15.66;81.54;101539.50;2088376;28;20838;-70
2022/07/03 01:26:58;;;;;;;4.50;1.23;;;;;;;15.62;80.87;101536.03;2086484;28;31575;-70
2022/07/03 01:28:18;;;;;;;2.58;1.00;;;;;;;15.59;81.22;101529.84;2080724;28;21860;-70
2022/07/03 01:29:35;;;;;;;1.92;0.80;;;;;;;15.56;81.17;101528.16;2087445;28;25408;-70
2022/07/03 01:30:47;;;;;;;2.17;0.80;;;;;;;15.52;81.10;101531.88;2089131;28;20092;-71
2022/07/03 01:31:53;;;;;;;1.85;0.75;;;;;;;15.49;81.46;101534.69;2086499;28;20045;-70
2022/07/03 01:33:05;;;;;;;2.60;0.82;;;;;;;15.47;81.33;101531.19;2089989;28;20038;-70
2022/07/03 01:34:18;;;;;;;1.60;0.60;;;;;;;15.43;81.39;101516.91;2089069;28;21058;-70
2022/07/03 01:35:33;;;;;;;3.42;1.08;;;;;;;15.40;81.66;101530.50;2088675;28;38937;-70
2022/07/03 01:36:40;;;;;;;1.95;1.05;;;;;;;15.38;81.72;101526.06;2088594;28;30019;-70
2022/07/03 01:37:45;;;;;;;2.53;0.90;;;;;;;15.36;81.55;101527.94;2096930;28;30565;-70
2022/07/03 01:38:50;;;;;;;2.05;1.10;;;;;;;15.36;81.60;101528.84;2095994;28;20076;-70
2022/07/03 01:39:53;;;;;;;1.98;0.73;;;;;;;15.34;81.69;101529.81;2096790;28;22993;-70
2022/07/03 01:40:59;;;;;;;1.50;0.90;;;;;;;15.36;81.79;101527.94;2096232;28;22035;-70
2022/07/03 01:42:02;;;;;;;3.42;1.13;;;;;;;15.37;81.96;101532.41;2088127;28;35645;-70
2022/07/03 01:43:10;;;;;;;1.38;0.90;;;;;;;15.37;81.62;101529.72;2096615;28;23678;-69
2022/07/03 01:44:14;;;;;;;2.28;0.82;;;;;;;15.38;81.97;101516.16;2096997;28;22988;-69
2022/07/03 01:45:19;;;;;;;2.03;0.77;;;;;;;15.39;81.77;101527.84;2088765;28;27880;-72
2022/07/03 01:46:27;;;;;;;2.55;0.80;;;;;;;15.40;81.52;101526.91;2080832;28;28992;-71
2022/07/03 01:47:31;;;;;;;2.55;1.00;;;;;;;15.41;81.89;101517.88;2088706;28;36427;-72
2022/07/03 01:48:35;;;;;;;3.70;0.88;;;;;;;15.42;81.60;101530.44;2096162;28;36725;-72
2022/07/03 01:49:40;;;;;;;2.80;1.00;;;;;;;15.44;81.73;101520.47;2096012;28;30139;-71
2022/07/03 01:50:42;;;;;;;2.60;1.02;;;;;;;15.45;81.45;101522.22;2097145;28;20041;-70
2022/07/03 01:51:48;;;;;;;3.15;1.00;;;;;;;15.47;81.76;101525.78;2096323;28;35551;-69
2022/07/03 01:52:51;;;;;;;1.58;0.85;;;;;;;15.50;81.85;101524.78;2095954;28;29788;-70
2022/07/03 01:53:53;;;;;;;1.95;1.13;;;;;;;15.50;81.69;101517.56;2096422;28;38224;-70
2022/07/03 01:55:01;;;;;;;3.45;1.17;;;;;;;15.53;81.69;101517.47;2095859;28;28487;-70
2022/07/03 01:56:03;;;;;;;1.98;0.90;;;;;;;15.55;81.63;101523.69;2088378;28;25999;-71
2022/07/03 01:57:07;;;;;;;3.28;1.00;;;;;;;15.58;81.95;101520.00;2087652;28;36050;-71
2022/07/03 01:58:11;;;;;;;2.85;0.95;;;;;;;15.59;81.88;101516.34;2089632;28;20198;-71
2022/07/03 01:59:13;;;;;;;2.22;1.00;;;;;;;15.62;81.70;101514.44;2089048;28;22487;-71
2022/07/03 02:00:20;;;;;;;1.58;0.95;;;;;;;15.64;82.09;101515.25;2096338;28;37096;-71
2022/07/03 02:01:40;;;;;;;3.75;1.20;;;;;;;15.64;81.46;101506.28;2095666;28;38071;-71
2022/07/03 02:02:52;;;;;;;2.08;0.95;;;;;;;15.64;81.83;101515.25;2088856;28;32601;-70
2022/07/03 02:04:13;;;;;;;1.10;0.68;;;;;;;15.64;81.37;101512.56;2097515;28;21079;-70
2022/07/03 02:05:33;;;;;;;1.88;0.77;;;;;;;15.64;81.09;101509.00;2092862;28;21056;-70
2022/07/03 02:06:37;;;;;;;3.80;1.00;;;;;;;15.62;81.75;101508.16;2088461;28;37978;-70
2022/07/03 02:08:08;;;;;;;3.67;1.02;;;;;;;15.61;81.94;101511.78;2089301;28;20034;-70
2022/07/03 02:09:17;;;;;;;3.08;1.00;;;;;;;15.58;81.62;101514.63;2099270;28;30152;-70
2022/07/03 02:10:50;;;;;;;2.88;1.23;;;;;;;15.57;82.25;101510.13;2097024;28;20045;-70
2022/07/03 02:11:52;;;;;;;5.18;1.10;;;;;;;15.55;81.78;101512.00;2096901;28;39749;-70
2022/07/03 02:13:06;;;;;;;1.95;1.05;;;;;;;15.55;81.93;101512.00;2097107;28;21852;-70
2022/07/03 02:14:22;;;;;;;2.65;0.90;;;;;;;15.54;82.13;101510.22;2097084;28;22269;-70
2022/07/03 02:15:34;;;;;;;3.20;1.00;;;;;;;15.51;82.32;101508.53;2091662;28;33660;-70
2022/07/03 02:17:16;;;;;;;3.03;0.63;;;;;;;15.50;82.56;101511.28;2097585;28;20896;-70
2022/07/03 02:18:28;;;;;;;2.05;1.10;;;;;;;15.50;82.44;101508.59;2094741;28;39655;-70
2022/07/03 02:19:55;;;;;;;2.65;0.88;;;;;;;15.49;82.41;101502.31;2097726;28;20219;-70
2022/07/03 02:21:18;;;;;;;2.83;1.20;;;;;;;15.48;82.61;101511.34;2097682;28;20163;-70
2022/07/03 02:22:25;;;;;;;2.78;0.80;;;;;;;15.48;82.74;101511.34;2096598;28;36946;-70
2022/07/03 02:23:32;;;;;;;1.52;0.90;;;;;;;15.49;82.85;101512.19;2097037;28;25247;-70
2022/07/03 02:24:44;;;;;;;2.75;1.20;;;;;;;15.49;83.00;101506.81;2096598;28;28105;-69
2022/07/03 02:25:53;;;;;;;3.53;1.20;;;;;;;15.47;83.17;101509.59;2090962;28;22851;-70
2022/07/03 02:27:04;;;;;;;2.55;1.00;;;;;;;15.48;83.03;101507.75;2096518;28;31202;-70
2022/07/03 02:28:50;;;;;;;3.58;1.55;;;;;;;15.45;83.53;101504.22;2096099;28;30324;-70
2022/07/03 02:30:06;;;;;;;2.83;1.13;;;;;;;15.43;83.08;101502.50;2097071;28;29828;-70
2022/07/03 02:31:15;;;;;;;1.73;1.00;;;;;;;15.43;83.35;101503.41;2096839;28;23353;-70
2022/07/03 02:32:22;;;;;;;1.58;0.90;;;;;;;15.45;83.18;101500.63;2089039;28;29755;-71
2022/07/03 02:33:28;;;;;;;3.03;1.00;;;;;;;15.43;83.17;101502.50;2089561;28;33373;-70
2022/07/03 02:34:33;;;;;;;1.90;1.27;;;;;;;15.43;83.05;101497.09;2096644;28;20048;-70
2022/07/03 02:35:37;;;;;;;1.38;1.02;;;;;;;15.43;83.12;101503.41;2097174;28;28574;-70
2022/07/03 02:36:40;;;;;;;2.88;1.30;;;;;;;15.43;83.06;101502.50;2095818;28;35217;-70
2022/07/03 02:37:58;;;;;;;1.58;1.00;;;;;;;15.45;82.98;101501.53;2089323;28;26378;-70
2022/07/03 02:39:01;;;;;;;2.35;1.35;;;;;;;15.45;82.81;101503.34;2090736;28;27111;-70
2022/07/03 02:40:27;;;;;;;2.25;1.33;;;;;;;15.46;83.04;101505.09;2096417;28;23729;-70
2022/07/03 02:41:57;;;;;;;1.85;1.25;;;;;;;15.46;83.32;101497.88;2095966;28;32569;-70
2022/07/03 02:43:21;;;;;;;2.17;0.95;;;;;;;15.48;82.87;101505.94;2096692;28;28888;-70
2022/07/03 02:44:44;;;;;;;3.17;1.00;;;;;;;15.46;82.57;101503.28;2096599;28;26443;-69
2022/07/03 02:48:02;;;;;;;1.85;0.93;;;;;;;15.46;83.00;101505.09;2096761;28;20925;-70
2022/07/03 02:49:43;;;;;;;2.13;1.00;;;;;;;15.47;82.84;101512.28;2095787;28;28374;-70
2022/07/03 02:50:51;;;;;;;2.65;1.23;;;;;;;15.48;82.53;101505.06;2096870;28;21963;-61
2022/07/03 02:52:34;;;;;;;2.47;1.13;;;;;;;15.46;82.74;101505.09;2096555;28;23646;-70
2022/07/03 02:53:46;;;;;;;1.60;0.82;;;;;;;15.47;82.60;101504.19;2097036;28;20196;-70
2022/07/03 02:54:48;;;;;;;2.95;1.27;;;;;;;15.49;83.16;101507.72;2096493;28;25764;-71
2022/07/03 02:55:57;;;;;;;1.63;0.82;;;;;;;15.52;82.81;101499.50;2089709;28;20911;-70
2022/07/03 02:57:09;;;;;;;2.00;0.85;;;;;;;15.53;82.69;101498.56;2088700;28;38891;-70
2022/07/03 02:58:44;;;;;;;2.08;1.30;;;;;;;15.55;82.70;101504.78;2097001;28;22225;-70
2022/07/03 03:00:04;;;;;;;3.28;1.20;;;;;;;15.57;82.48;101499.34;2097005;28;20041;-70
2022/07/03 03:01:19;;;;;;;;;;;;;;;15.58;82.63;101503.81;2096746;28;23373;-70
2022/07/03 03:02:49;;;;;;;2.15;1.02;;;;;;;15.61;82.29;101495.59;2096647;28;28759;-70
2022/07/03 03:04:08;;;;;;;2.77;1.50;;;;;;;15.63;82.33;101502.72;2096005;28;40426;-70
2022/07/03 03:05:16;;;;;;;3.15;1.10;;;;;;;15.65;81.81;101502.66;2096089;28;20363;-70
2022/07/03 03:06:21;;;;;;;2.47;1.48;;;;;;;15.65;82.30;101498.13;2091036;28;32249;-71
2022/07/03 03:07:33;;;;;;;3.70;1.55;;;;;;;15.66;82.03;101505.28;2081346;28;20085;-71
2022/07/03 03:08:51;;;;;;;3.42;1.73;;;;;;;15.68;82.47;101507.94;2091237;28;24121;-71
2022/07/03 03:09:56;;;;;;;1.65;1.30;;;;;;;15.70;82.04;101505.19;2101739;28;20203;-71
2022/07/03 03:11:07;;;;;;;2.30;1.25;;;;;;;15.72;82.60;101503.31;2096663;28;24826;-71
2022/07/03 03:12:11;;;;;;;1.80;0.88;;;;;;;15.72;82.08;101509.63;2089667;28;22145;-71
2022/07/03 03:13:16;;;;;;;2.78;1.40;;;;;;;15.75;82.20;101504.13;2089253;28;28120;-70
2022/07/03 03:14:22;;;;;;;2.55;1.55;;;;;;;15.75;82.24;101498.72;2096490;28;20099;-71
2022/07/03 03:15:29;;;;;;;2.63;0.90;;;;;;;15.77;82.38;101496.88;2096410;28;20810;-70
2022/07/03 03:16:31;;;;;;;2.03;1.35;;;;;;;15.78;81.91;101492.34;2089089;28;27354;-71
2022/07/03 03:17:43;;;;;;;2.40;1.30;;;;;;;15.80;82.54;101501.25;2096068;28;27153;-70
2022/07/03 03:18:48;;;;;;;4.72;1.60;;;;;;;15.80;82.31;101495.88;2096825;28;20033;-71
2022/07/03 03:19:58;;;;;;;2.15;1.30;;;;;;;15.80;82.20;101485.94;2088437;28;27148;-71
2022/07/03 03:21:03;;;;;;;2.05;0.93;;;;;;;15.82;81.99;101494.00;2089249;28;26318;-71
2022/07/03 03:22:18;;;;;;;2.58;1.08;;;;;;;15.84;82.37;101494.81;2088872;28;28128;-70
2022/07/03 03:23:50;;;;;;;2.95;1.25;;;;;;;15.86;82.25;101492.06;2096663;28;20380;-70
2022/07/03 03:24:53;;;;;;;2.97;1.15;;;;;;;15.87;81.93;101489.31;2097258;28;20121;-70
2022/07/03 03:25:55;;;;;;;3.38;0.82;;;;;;;15.88;81.62;101488.38;2096054;28;38656;-71
2022/07/03 03:27:00;;;;;;;2.67;0.80;;;;;;;15.89;81.75;101492.81;2095976;28;20033;-70
2022/07/03 03:28:03;;;;;;;2.63;0.98;;;;;;;15.90;81.13;101489.22;2096327;28;23195;-71
2022/07/03 03:29:05;;;;;;;4.25;1.20;;;;;;;15.91;81.74;101490.06;2096703;28;20049;-71
2022/07/03 03:30:08;;;;;;;2.25;1.20;;;;;;;15.94;81.88;101487.28;2096857;28;23031;-71
2022/07/03 03:31:12;;;;;;;3.33;0.70;;;;;;;15.96;81.35;101497.06;2096603;28;35886;-71
2022/07/03 03:32:17;;;;;;;1.88;0.90;;;;;;;15.98;81.16;101486.22;2095674;28;30345;-70
2022/07/03 03:33:21;;;;;;;2.38;1.48;;;;;;;16.00;81.31;101487.91;2088621;28;26491;-71
2022/07/03 03:34:26;;;;;;;2.35;0.88;;;;;;;16.03;81.26;101482.41;2088130;28;24477;-71
2022/07/03 03:35:30;;;;;;;1.70;0.82;;;;;;;16.09;80.96;101492.09;2088953;28;24881;-71
2022/07/03 03:36:32;;;;;;;1.73;1.00;;;;;;;16.13;81.15;101490.16;2096281;28;20040;-71
2022/07/03 03:37:34;;;;;;;2.92;0.93;;;;;;;16.17;81.00;101490.00;2095766;28;27741;-71
2022/07/03 03:38:40;;;;;;;1.52;0.85;;;;;;;16.19;80.38;101490.81;2095662;28;30737;-71
2022/07/03 03:39:44;;;;;;;2.80;0.80;;;;;;;16.25;80.96;101492.41;2096332;28;20041;-70
2022/07/03 03:40:49;;;;;;;1.33;0.77;;;;;;;16.29;79.94;101488.63;2088363;28;30508;-70
2022/07/03 03:41:52;;;;;;;1.42;0.70;;;;;;;16.34;80.12;101486.63;2095815;28;20025;-70
2022/07/03 03:42:56;;;;;;;1.75;1.00;;;;;;;16.37;80.17;101483.84;2095618;28;31243;-71
2022/07/03 03:43:58;;;;;;;2.67;0.88;;;;;;;16.39;79.86;101486.47;2096300;28;27160;-71
2022/07/03 03:45:00;;;;;;;2.17;0.80;;;;;;;16.41;80.13;101482.75;2104257;28;22028;-71
2022/07/03 03:46:03;;;;;;;2.20;0.90;;;;;;;16.42;79.32;101484.53;2096010;28;34663;-71
2022/07/03 03:47:06;;;;;;;2.60;0.80;;;;;;;16.44;79.66;101484.47;2095705;28;20063;-70
2022/07/03 03:48:10;;;;;;;1.67;1.02;;;;;;;16.45;79.29;101477.25;2096220;28;24900;-71
2022/07/03 03:49:12;;;;;;;1.50;0.80;;;;;;;16.46;79.47;101484.44;2096200;28;20118;-71
2022/07/03 03:50:16;;;;;;;1.35;0.73;;;;;;;16.45;79.59;101477.25;2097085;28;20045;-71
2022/07/03 03:51:18;;;;;;;3.15;0.98;;;;;;;16.45;79.85;101482.66;2096205;28;30772;-71
2022/07/03 03:52:19;;;;;;;2.58;0.52;;;;;;;16.47;80.08;101480.78;2096686;28;24606;-70
2022/07/03 03:53:23;;;;;;;1.52;0.90;;;;;;;16.45;79.54;101477.25;2096220;28;22364;-70
2022/07/03 03:54:31;;;;;;;1.50;0.90;;;;;;;16.46;79.84;101474.50;2095816;28;26638;-71
2022/07/03 03:55:33;;;;;;;1.60;0.80;;;;;;;16.46;79.34;101479.91;2095891;28;22437;-71
2022/07/03 03:56:34;;;;;;;2.42;0.82;;;;;;;16.45;79.78;101480.81;2096646;28;29050;-70
2022/07/03 03:57:37;;;;;;;2.38;0.63;;;;;;;16.46;79.91;101481.72;2096379;28;21844;-71
2022/07/03 03:58:41;;;;;;;1.08;0.60;;;;;;;16.45;79.49;101480.81;2096936;28;20049;-71
2022/07/03 03:59:43;;;;;;;2.03;1.00;;;;;;;16.45;79.90;101482.66;2095579;28;21800;-71
2022/07/03 04:00:45;;;;;;;2.42;0.80;;;;;;;16.45;79.89;101485.34;2096182;28;30256;-71
2022/07/03 04:01:47;;;;;;;1.85;1.08;;;;;;;16.44;79.72;101481.78;2095603;28;26930;-71
2022/07/03 04:02:49;;;;;;;2.75;0.80;;;;;;;16.45;80.28;101482.66;2096771;28;21558;-71
2022/07/03 04:03:51;;;;;;;1.90;1.08;;;;;;;16.46;79.76;101482.59;2096475;28;20049;-71
2022/07/03 04:04:53;;;;;;;1.50;0.77;;;;;;;16.46;79.88;101481.72;2096731;28;25603;-71
2022/07/03 04:05:55;;;;;;;2.75;0.98;;;;;;;16.47;80.23;101481.63;2095984;28;37974;-71
2022/07/03 04:06:57;;;;;;;1.60;0.60;;;;;;;16.48;79.92;101482.53;2097045;28;20106;-71
2022/07/03 04:07:59;;;;;;;2.33;1.20;;;;;;;16.46;80.18;101479.03;2096395;28;22072;-71
2022/07/03 04:09:01;;;;;;;0.93;0.55;;;;;;;16.48;79.76;101486.13;2096799;28;22457;-71
2022/07/03 04:10:03;;;;;;;1.05;0.60;;;;;;;16.49;80.17;101479.78;2096645;28;20045;-70
2022/07/03 04:11:05;;;;;;;3.30;0.98;;;;;;;16.51;79.96;101482.41;2095536;28;33652;-71
2022/07/03 04:12:07;;;;;;;2.22;0.50;;;;;;;16.56;80.25;101480.41;2087518;28;24579;-70
2022/07/03 04:13:11;;;;;;;2.55;1.27;;;;;;;16.56;80.47;101485.81;2087952;28;20806;-71
2022/07/03 04:14:13;;;;;;;4.25;1.40;;;;;;;16.57;79.99;101480.34;2095285;28;33092;-70
2022/07/03 04:15:15;;;;;;;2.25;0.75;;;;;;;16.60;79.86;101484.78;2096107;28;32765;-71
2022/07/03 04:16:17;;;;;;;2.55;1.10;;;;;;;16.63;80.04;101486.47;2096303;28;22335;-71
2022/07/03 04:17:21;;;;;;;2.85;1.10;;;;;;;16.64;79.31;101483.69;2095971;28;29050;-71
2022/07/03 04:18:25;;;;;;;2.15;0.88;;;;;;;16.68;80.04;101484.47;2095890;28;34169;-71
2022/07/03 04:19:33;;;;;;;1.85;0.85;;;;;;;16.69;79.80;101484.41;2096529;28;27729;-71
2022/07/03 04:20:35;;;;;;;1.65;0.73;;;;;;;16.73;79.34;101490.56;2095645;28;21114;-71
2022/07/03 04:21:37;;;;;;;3.35;0.93;;;;;;;16.78;79.28;101489.44;2087964;28;20103;-71
2022/07/03 04:22:38;;;;;;;3.42;0.88;;;;;;;16.95;79.28;101494.19;2087447;28;23216;-70
2022/07/03 04:23:41;;;;;;;1.65;0.90;;;;;;;17.09;78.74;101485.50;2096385;28;20041;-71
2022/07/03 04:24:42;;;;;;;1.63;0.80;;;;;;;17.22;78.61;101483.16;2103996;28;26456;-71
2022/07/03 04:25:44;;;;;;;3.38;0.95;;;;;;;17.34;78.16;101485.34;2103987;28;28248;-71
2022/07/03 04:26:47;;;;;;;1.20;0.82;;;;;;;17.41;77.92;101487.78;2095880;28;23540;-71
2022/07/03 04:27:49;;;;;;;2.05;0.82;;;;;;;17.45;77.68;101484.91;2095694;28;27752;-70
2022/07/03 04:29:10;;;;;;;3.78;0.93;;;;;;;17.47;77.38;101480.28;2096426;28;20047;-70
2022/07/03 04:30:13;;;;;;;1.77;0.70;;;;;;;17.50;77.45;101485.59;2104235;28;26782;-69
2022/07/03 04:31:14;;;;;;;1.83;0.80;;;;;;;17.58;76.89;101478.97;2103597;28;24981;-71
2022/07/03 04:32:19;;;;;;;2.67;0.65;;;;;;;18.00;76.27;101480.72;2095938;28;27655;-70
2022/07/03 04:33:20;;;;;;;1.73;0.80;;;;;;;18.38;74.88;101483.53;2095824;28;26982;-70
2022/07/03 04:34:27;;;;;;;1.40;0.60;;;;;;;18.58;74.76;101478.00;2096837;28;20041;-71
2022/07/03 04:35:29;;;;;;;2.25;0.60;;;;;;;18.68;73.85;101473.91;2096274;28;30562;-70
2022/07/03 04:36:30;;;;;;;1.73;0.70;;;;;;;18.74;72.88;101472.72;2096843;28;20110;-71
2022/07/03 04:37:32;;;;;;;4.53;0.82;;;;;;;18.79;72.97;101477.91;2096352;28;23358;-69
2022/07/03 04:38:34;;;;;;;2.05;0.80;;;;;;;19.03;72.00;101465.88;2096860;28;22516;-69
2022/07/03 04:39:36;;;;;;;2.30;0.63;;;;;;;19.51;70.65;101473.47;2095982;28;25224;-70
2022/07/03 04:40:38;;;;;;;2.13;0.80;;;;;;;19.99;69.23;101475.44;2096514;28;23303;-70
2022/07/03 04:41:39;;;;;;;1.52;0.57;;;;;;;20.56;67.99;101472.28;2096007;28;24366;-70
2022/07/03 04:42:41;;;;;;;1.58;0.80;;;;;;;21.05;65.97;101473.19;2095759;28;20044;-70
2022/07/03 04:43:43;;;;;;;1.58;0.57;;;;;;;21.36;64.85;101472.28;2094985;28;38032;-70
2022/07/03 04:44:45;;;;;;;2.33;0.60;;;;;;;21.81;61.70;101480.50;2096067;28;25492;-70
2022/07/03 04:45:47;;;;;;;2.47;0.70;;;;;;;22.47;61.35;101481.84;2096214;28;31105;-70
2022/07/03 04:46:49;;;;;;;2.08;0.60;;;;;;;22.83;59.73;101472.22;2096266;28;27098;-70
2022/07/03 04:47:51;;;;;;;3.00;0.85;;;;;;;23.08;57.72;101468.75;2103491;28;20146;-70
2022/07/03 04:48:52;;;;;;;1.83;0.60;;;;;;;23.21;57.47;101472.41;2103996;28;33231;-70
2022/07/03 04:49:54;;;;;;;2.10;0.70;;;;;;;23.42;56.43;101469.22;2096218;28;20049;-70
2022/07/03 04:50:56;;;;;;;1.85;0.50;;;;;;;23.55;54.73;101475.56;2096788;28;20037;-70
2022/07/03 04:52:01;;;;;;;3.13;0.60;;;;;;;23.61;55.85;101466.91;2095478;28;22861;-70
2022/07/03 04:53:03;;;;;;;2.95;0.52;;;;;;;23.41;56.17;101471.03;2095722;28;23081;-70
2022/07/03 04:54:05;;;;;;;2.05;0.57;;;;;;;23.12;57.27;101464.84;2096165;28;23753;-71
2022/07/03 04:55:09;;;;;;;2.95;0.60;;;;;;;22.93;57.49;101473.34;2096471;28;20045;-70
2022/07/03 04:56:11;;;;;;;4.18;0.77;;;;;;;22.54;58.25;101472.28;2096674;28;20045;-71
2022/07/03 04:57:16;;;;;;;2.63;0.50;;;;;;;22.47;59.25;101476.38;2096021;28;20106;-71
2022/07/03 04:58:18;;;;;;;2.00;0.63;;;;;;;22.51;58.68;101475.19;2104037;28;21000;-71
2022/07/03 04:59:21;;;;;;;1.38;0.60;;;;;;;22.66;58.58;101467.84;2103821;28;21061;-71
2022/07/03 05:00:23;;;;;;;2.80;0.65;;;;;;;22.68;58.84;101475.00;2095634;28;29218;-70
2022/07/03 05:01:25;;;;;;;3.40;0.63;;;;;;;22.92;58.08;101481.66;2095392;28;20050;-70
2022/07/03 05:02:27;;;;;;;3.70;0.73;;;;;;;23.23;57.07;101480.50;2095792;28;36921;-71
2022/07/03 05:03:29;;;;;;;2.92;0.40;;;;;;;23.60;55.82;101473.38;2095918;28;37633;-70
2022/07/03 05:04:31;;;;;;;1.40;0.55;;;;;;;23.80;55.02;101473.88;2096394;28;20151;-70
2022/07/03 05:05:33;;;;;;;1.85;0.50;;;;;;;24.27;54.87;101466.00;2097600;28;21705;-71
2022/07/03 05:06:34;;;;;;;2.17;0.55;;;;;;;24.48;53.46;101466.28;2096735;28;27574;-71
2022/07/03 05:07:36;;;;;;;2.10;0.60;;;;;;;24.98;52.01;101472.66;2097704;28;21000;-71
2022/07/03 05:08:38;;;;;;;2.28;0.68;;;;;;;25.56;50.45;101463.72;2097299;28;30569;-70
2022/07/03 05:09:39;;;;;;;3.05;0.40;;;;;;;26.04;49.36;101466.31;2097918;28;20037;-71
2022/07/03 05:10:42;;;;;;;1.80;0.60;;;;;;;26.83;47.62;101469.09;2097632;28;22401;-71
2022/07/03 05:11:44;;;;;;;1.40;0.40;;;;;;;27.42;46.00;101463.16;2097273;28;38407;-70
2022/07/03 05:12:45;;;;;;;2.42;0.70;;;;;;;28.00;44.20;101461.84;2097390;28;20033;-71
2022/07/03 05:15:25;;;;;;;2.35;0.82;;;;;;;28.58;41.21;101465.91;2081317;28;20156;-72
2022/07/03 05:16:27;;;;;;;2.03;0.40;;;;;;;29.50;41.51;101472.03;2088838;28;21085;-71
2022/07/03 05:17:29;;;;;;;3.25;0.60;;;;;;;29.24;39.77;101481.88;2088676;28;21587;-72
2022/07/03 05:18:33;;;;;;;2.28;0.50;;;;;;;30.06;40.05;101467.59;2084281;28;34474;-72